Time;durP1;ratioP1;P1;durP2;ratioP2;P2;SDS_P1;SDS_P2;PMS_P1;PMS_P2;Temp;Humidity;BMP_temperature;BMP_pressure;BME280_temperature;BME280_humidity;BME280_pressure;Samples;Min_cycle;Max_cycle;Signal;HPM_P1;HPM_P2
2022/08/08 00:00:02;;;;;;;5.38;2.42;;;;;;;11.57;82.31;98804.03;5044314;28;20037;-68
2022/08/08 00:02:38;;;;;;;2.88;2.10;;;;;;;11.40;82.98;98800.91;5059809;28;20025;-68
2022/08/08 00:05:20;;;;;;;3.28;1.88;;;;;;;11.42;83.47;98804.34;5063879;28;20217;-68
2022/08/08 00:08:04;;;;;;;5.15;2.22;;;;;;;11.40;83.61;98795.63;5062008;28;20067;-68
2022/08/08 00:11:00;;;;;;;4.68;2.45;;;;;;;11.52;83.66;98808.53;5063816;28;20040;-68
2022/08/08 00:13:38;;;;;;;4.82;2.72;;;;;;;11.23;83.63;98796.84;5055274;28;20336;-68
2022/08/08 00:16:08;;;;;;;2.97;2.25;;;;;;;11.30;84.67;98798.47;5063957;28;20209;-68
2022/08/08 00:18:43;;;;;;;4.78;2.47;;;;;;;11.24;84.91;98799.47;5064034;28;20025;-68
2022/08/08 00:21:14;;;;;;;3.33;2.13;;;;;;;11.37;84.61;98794.81;5063903;28;20321;-68
2022/08/08 00:23:59;;;;;;;5.10;2.40;;;;;;;11.29;84.34;98796.75;5046364;28;20036;-68
2022/08/08 00:26:30;;;;;;;3.55;2.30;;;;;;;11.17;83.83;98797.81;5044042;28;20271;-68
2022/08/08 00:29:13;;;;;;;3.38;1.90;;;;;;;11.09;84.61;98799.75;5044958;28;20037;-68
2022/08/08 00:31:44;;;;;;;2.85;1.73;;;;;;;10.93;84.06;98793.03;5051686;28;20049;-68
2022/08/08 00:37:36;;;;;;;5.97;2.47;;;;;;;10.85;85.69;98805.44;5061560;28;20044;-68
2022/08/08 00:40:07;;;;;;;5.00;2.85;;;;;;;11.00;85.83;98810.44;5045299;28;20311;-69
2022/08/08 00:42:50;;;;;;;4.93;2.67;;;;;;;10.98;85.99;98812.22;5043870;28;20233;-68
2022/08/08 00:45:27;;;;;;;3.88;2.20;;;;;;;11.09;85.59;98810.28;5043814;28;20033;-68
2022/08/08 00:47:55;;;;;;;4.40;2.58;;;;;;;11.01;85.38;98800.78;5043800;28;20190;-69
2022/08/08 00:50:20;;;;;;;3.10;2.05;;;;;;;10.79;85.62;98792.41;5043735;28;20025;-68
2022/08/08 00:53:09;;;;;;;4.00;2.85;;;;;;;10.86;86.28;98797.53;5051805;28;20039;-68
2022/08/08 00:55:53;;;;;;;4.90;2.47;;;;;;;10.91;86.23;98805.34;5044767;28;20036;-69
2022/08/08 00:58:40;;;;;;;3.13;2.33;;;;;;;10.79;86.13;98792.41;5059711;28;20088;-69
2022/08/08 01:01:06;;;;;;;3.28;2.17;;;;;;;10.82;86.19;98797.59;5061740;28;20351;-69
2022/08/08 01:04:29;;;;;;;4.10;2.60;;;;;;;10.83;85.98;98800.19;5054438;28;20025;-68
2022/08/08 01:07:24;;;;;;;5.80;2.67;;;;;;;10.72;86.19;98793.41;5054158;28;20257;-68
2022/08/08 01:10:02;;;;;;;5.85;2.67;;;;;;;10.74;86.18;98796.88;5051395;28;20053;-68
2022/08/08 01:12:52;;;;;;;4.03;2.53;;;;;;;10.55;86.41;98796.34;5043234;28;20041;-68
2022/08/08 01:15:29;;;;;;;3.45;2.25;;;;;;;10.57;86.41;98798.94;5045776;28;20029;-68
2022/08/08 01:18:22;;;;;;;4.35;2.80;;;;;;;10.42;86.82;98793.91;5043466;28;20025;-68
2022/08/08 01:20:56;;;;;;;4.38;2.63;;;;;;;10.41;86.89;98802.72;5056155;28;20260;-68
2022/08/08 01:23:54;;;;;;;3.05;2.30;;;;;;;10.42;87.05;98796.56;5049682;28;20260;-68
2022/08/08 01:26:57;;;;;;;7.57;2.72;;;;;;;10.28;87.36;98801.13;5061808;28;20217;-68
2022/08/08 01:30:03;;;;;;;6.80;3.30;;;;;;;10.28;88.13;98806.41;5062384;28;20041;-68
2022/08/08 01:33:06;;;;;;;5.60;2.83;;;;;;;10.43;88.21;98795.66;5044523;28;20035;-68
2022/08/08 01:35:59;;;;;;;;;;;;;;;10.44;87.69;98795.63;5054456;28;20384;-68
2022/08/08 01:38:42;;;;;;;3.40;2.50;;;;;;;10.34;87.73;98785.25;5060691;28;19916;-68
2022/08/08 01:41:32;;;;;;;4.38;2.53;;;;;;;10.34;87.89;98791.41;5048752;28;20033;-68
2022/08/08 01:44:24;;;;;;;3.70;2.60;;;;;;;10.17;88.52;98792.56;5063133;28;20021;-68
2022/08/08 01:47:06;;;;;;;3.20;2.33;;;;;;;10.12;88.01;98794.38;5064856;28;20335;-68
2022/08/08 01:49:49;;;;;;;4.63;2.50;;;;;;;10.18;87.72;98794.28;5054585;28;20025;-68
2022/08/08 01:52:39;;;;;;;4.00;2.67;;;;;;;10.13;88.42;98804.03;5058706;28;20080;-68
2022/08/08 01:55:27;;;;;;;5.85;2.83;;;;;;;9.94;88.55;98800.75;5057977;28;20272;-68
2022/08/08 01:58:20;;;;;;;4.38;2.67;;;;;;;10.02;89.02;98804.16;5056888;28;20136;-68
2022/08/08 02:01:00;;;;;;;4.13;2.88;;;;;;;10.03;89.08;98810.28;5052515;28;20063;-68
2022/08/08 02:04:00;;;;;;;3.35;2.63;;;;;;;9.92;88.69;98804.28;5064572;28;20031;-68
2022/08/08 02:06:59;;;;;;;6.35;2.88;;;;;;;10.02;89.66;98806.78;5049750;28;20104;-68
2022/08/08 02:09:45;;;;;;;4.70;2.97;;;;;;;10.06;88.78;98810.25;5060808;28;20032;-68
2022/08/08 02:12:29;;;;;;;7.30;2.33;;;;;;;9.68;88.81;98802.00;5046238;28;20067;-68
2022/08/08 02:15:12;;;;;;;3.70;2.58;;;;;;;9.82;89.16;98805.31;5059078;28;20028;-68
2022/08/08 02:17:55;;;;;;;3.47;2.58;;;;;;;9.73;89.28;98815.94;5065561;28;20029;-68
2022/08/08 02:20:32;;;;;;;3.88;2.78;;;;;;;9.77;90.10;98817.63;5064165;28;20033;-68
2022/08/08 02:23:18;;;;;;;5.10;2.70;;;;;;;9.59;90.33;98823.16;5053670;28;20048;-68
2022/08/08 02:25:52;;;;;;;4.90;2.47;;;;;;;9.67;91.05;98823.91;5046005;28;20033;-68
2022/08/08 02:28:51;;;;;;;3.20;2.65;;;;;;;9.64;90.14;98821.31;5057679;28;20037;-68
2022/08/08 02:31:50;;;;;;;3.83;2.60;;;;;;;9.53;90.43;98825.84;5059722;28;20237;-68
2022/08/08 02:34:43;;;;;;;3.00;2.33;;;;;;;9.53;90.98;98818.84;5047037;28;20041;-68
2022/08/08 02:37:22;;;;;;;3.92;2.90;;;;;;;9.57;90.48;98825.78;5059133;28;20190;-68
2022/08/08 02:40:07;;;;;;;3.22;2.47;;;;;;;9.57;90.13;98822.28;5051261;28;20029;-68
2022/08/08 02:42:38;;;;;;;8.20;2.38;;;;;;;9.44;90.24;98824.22;5056710;28;20028;-68
2022/08/08 02:45:18;;;;;;;4.38;2.78;;;;;;;9.57;91.16;98825.78;5065666;28;20193;-68
2022/08/08 02:48:02;;;;;;;5.22;2.75;;;;;;;9.65;90.66;98825.72;5065792;28;20241;-68
2022/08/08 02:50:27;;;;;;;4.57;2.40;;;;;;;9.31;89.63;98821.72;5065523;28;20083;-68
2022/08/08 02:53:30;;;;;;;3.65;2.28;;;;;;;9.21;90.86;98820.09;5063566;28;20368;-68
2022/08/08 02:56:19;;;;;;;3.67;2.60;;;;;;;9.08;92.04;98821.13;5064800;28;20047;-68
2022/08/08 02:58:44;;;;;;;4.72;2.80;;;;;;;9.18;92.39;98822.75;5052536;28;20313;-68
2022/08/08 03:01:37;;;;;;;6.97;3.05;;;;;;;9.20;92.65;98821.00;5052659;28;20025;-68
2022/08/08 03:04:08;;;;;;;;;;;;;;;9.17;92.05;98823.66;5046907;28;20344;-68
2022/08/08 03:07:04;;;;;;;3.28;2.47;;;;;;;9.28;91.73;98821.75;5045364;28;20212;-68
2022/08/08 03:09:41;;;;;;;3.60;2.53;;;;;;;9.46;91.80;98830.28;5045235;28;20220;-68
2022/08/08 03:12:28;;;;;;;6.95;2.53;;;;;;;9.48;91.24;98818.03;5057032;28;20048;-68
2022/08/08 03:15:23;;;;;;;3.70;2.22;;;;;;;9.20;89.78;98818.38;5064268;28;20221;-68
2022/08/08 03:18:06;;;;;;;2.92;2.22;;;;;;;8.98;91.51;98822.09;5056135;28;20025;-68
2022/08/08 03:20:41;;;;;;;2.47;2.08;;;;;;;8.91;92.70;98815.16;5028874;28;20221;-68
2022/08/08 03:23:06;;;;;;;5.75;2.30;;;;;;;9.10;92.72;98821.97;5044959;28;20025;-68
2022/08/08 03:25:32;;;;;;;2.85;2.40;;;;;;;9.18;91.82;98826.25;5045000;28;20029;-68
2022/08/08 03:28:11;;;;;;;2.90;2.20;;;;;;;9.15;91.73;98831.56;5044898;28;20139;-68
2022/08/08 03:30:36;;;;;;;4.35;2.42;;;;;;;9.03;91.85;98820.28;5060352;28;20044;-68
2022/08/08 03:33:18;;;;;;;6.50;2.50;;;;;;;9.21;91.72;98830.59;5062536;28;20332;-68
2022/08/08 03:35:46;;;;;;;7.47;2.30;;;;;;;9.22;91.77;98837.59;5054318;28;20035;-68
2022/08/08 03:38:13;;;;;;;4.00;1.88;;;;;;;9.17;90.42;98834.16;5045381;28;20025;-68
2022/08/08 03:40:38;;;;;;;17.90;3.28;;;;;;;8.99;90.92;98839.59;5064050;28;20032;-68
2022/08/08 03:43:09;;;;;;;5.15;2.50;;;;;;;8.80;92.46;98826.63;5063753;28;20025;-68
2022/08/08 03:45:35;;;;;;;4.38;2.78;;;;;;;8.74;93.86;98829.31;5063716;28;20328;-68
2022/08/08 03:48:07;;;;;;;2.70;2.30;;;;;;;8.76;93.71;98827.56;5059225;28;20021;-68
2022/08/08 03:50:34;;;;;;;6.28;2.72;;;;;;;8.76;94.26;98837.16;5044643;28;20356;-68
2022/08/08 03:53:11;;;;;;;5.80;2.58;;;;;;;8.90;93.73;98851.06;5060834;28;20039;-68
2022/08/08 03:55:38;;;;;;;8.25;2.42;;;;;;;8.87;92.28;98850.19;5047551;28;20035;-68
2022/08/08 03:58:04;;;;;;;4.15;2.40;;;;;;;8.72;92.73;98841.59;5044560;28;20017;-68
2022/08/08 04:00:29;;;;;;;6.88;2.97;;;;;;;8.68;93.35;98839.00;5045452;28;20182;-68
2022/08/08 04:03:01;;;;;;;14.35;2.63;;;;;;;8.75;93.64;98841.56;5043817;28;20021;-68
2022/08/08 04:05:32;;;;;;;15.38;2.50;;;;;;;8.75;93.35;98841.56;5044215;28;20021;-68
2022/08/08 04:07:58;;;;;;;8.02;2.85;;;;;;;8.82;93.39;98846.75;5044236;28;20025;-69
2022/08/08 04:10:25;;;;;;;11.30;2.38;;;;;;;8.75;92.63;98848.56;5047294;28;20028;-70
2022/08/08 04:12:52;;;;;;;7.28;2.30;;;;;;;8.88;92.53;98854.56;5064010;28;20316;-70
2022/08/08 04:15:18;;;;;;;7.57;2.60;;;;;;;8.85;92.35;98854.63;5064053;28;20021;-70
2022/08/08 04:17:43;;;;;;;4.18;2.30;;;;;;;8.86;92.76;98854.56;5063969;28;20112;-70
2022/08/08 04:20:09;;;;;;;5.35;2.10;;;;;;;8.78;92.90;98856.41;5063987;28;20063;-70
2022/08/08 04:22:34;;;;;;;5.65;1.67;;;;;;;8.73;93.09;98859.06;5064052;28;20024;-70
2022/08/08 04:24:59;;;;;;;11.55;2.72;;;;;;;8.60;94.29;98854.81;5063909;28;20021;-70
2022/08/08 04:27:26;;;;;;;2.90;2.30;;;;;;;8.66;94.83;98857.38;5064051;28;20358;-70
2022/08/08 04:29:51;;;;;;;2.50;1.88;;;;;;;8.83;93.96;98865.97;5063742;28;20037;-70
2022/08/08 04:32:16;;;;;;;6.05;2.05;;;;;;;8.87;92.89;98863.31;5063907;28;20029;-70
2022/08/08 04:34:42;;;;;;;5.45;2.40;;;;;;;8.80;91.37;98862.53;5063841;28;20021;-70
2022/08/08 04:37:08;;;;;;;6.00;2.30;;;;;;;8.68;92.18;98866.09;5063806;28;20032;-70
2022/08/08 04:39:33;;;;;;;2.90;2.03;;;;;;;8.81;92.97;98872.13;5063764;28;20024;-70
2022/08/08 04:41:59;;;;;;;3.15;2.03;;;;;;;8.92;92.54;98869.41;5063906;28;20434;-70
2022/08/08 04:44:24;;;;;;;6.88;2.30;;;;;;;9.00;92.16;98880.69;5063728;28;20031;-70
2022/08/08 04:46:50;;;;;;;4.00;1.70;;;;;;;9.09;91.59;98883.25;5063737;28;20309;-70
2022/08/08 04:49:16;;;;;;;5.45;2.10;;;;;;;9.11;91.20;98884.09;5063699;28;20027;-70
2022/08/08 04:51:41;;;;;;;5.22;2.22;;;;;;;9.09;91.83;98886.75;5063914;28;20041;-70
2022/08/08 04:54:07;;;;;;;3.22;2.20;;;;;;;9.13;92.15;98890.19;5063703;28;20041;-70
2022/08/08 04:56:33;;;;;;;3.92;1.88;;;;;;;9.21;91.13;98888.38;5063566;28;20029;-70
2022/08/08 04:58:58;;;;;;;1.92;1.75;;;;;;;9.37;91.06;98905.72;5063731;28;20036;-70
2022/08/08 05:01:23;;;;;;;5.55;2.40;;;;;;;9.40;90.92;98905.69;5063584;28;20048;-70
2022/08/08 05:03:49;;;;;;;7.03;2.55;;;;;;;9.37;91.29;98913.59;5063656;28;20031;-70
2022/08/08 05:06:14;;;;;;;5.28;2.22;;;;;;;9.42;91.20;98914.41;5063530;28;20339;-70
2022/08/08 05:08:41;;;;;;;2.20;1.92;;;;;;;9.56;90.43;98912.53;5063505;28;20074;-70
2022/08/08 05:11:06;;;;;;;2.90;1.83;;;;;;;9.67;90.38;98921.16;5063755;28;20208;-70
2022/08/08 05:13:32;;;;;;;2.00;1.80;;;;;;;10.09;89.95;98925.91;5064313;28;20028;-70
2022/08/08 05:15:58;;;;;;;2.25;2.00;;;;;;;11.94;84.54;98936.94;5067538;28;20320;-70
2022/08/08 05:18:23;;;;;;;2.75;1.80;;;;;;;13.25;77.10;98935.75;5067288;28;20024;-70
2022/08/08 05:20:48;;;;;;;4.95;1.83;;;;;;;14.20;73.16;98947.19;5067281;28;20020;-70
2022/08/08 05:23:14;;;;;;;2.53;1.42;;;;;;;15.27;69.23;98936.78;5067219;28;20021;-70
2022/08/08 05:25:40;;;;;;;1.40;1.20;;;;;;;15.98;66.31;98943.16;5067400;28;20025;-71
2022/08/08 05:28:05;;;;;;;3.35;1.60;;;;;;;16.78;63.05;98946.34;5066938;28;20068;-70
2022/08/08 05:30:31;;;;;;;5.15;1.45;;;;;;;17.35;60.41;98939.56;5067139;28;20212;-70
2022/08/08 05:32:56;;;;;;;2.08;1.40;;;;;;;17.59;60.13;98942.09;5067159;28;20262;-71
2022/08/08 05:35:22;;;;;;;1.33;0.90;;;;;;;18.09;59.03;98942.56;5067021;28;20032;-71
2022/08/08 05:37:53;;;;;;;1.23;1.00;;;;;;;18.66;56.98;98945.28;5066829;28;20052;-71
2022/08/08 05:40:18;;;;;;;1.60;1.10;;;;;;;18.98;56.56;98944.63;5066908;28;20266;-70
2022/08/08 05:42:48;;;;;;;1.63;1.23;;;;;;;19.24;55.45;98949.59;5066822;28;20021;-71
2022/08/08 05:45:13;;;;;;;4.93;1.35;;;;;;;19.37;54.82;98932.03;5066808;28;20021;-71
2022/08/08 05:47:40;;;;;;;2.55;1.10;;;;;;;19.73;54.00;98932.84;5066757;28;20325;-71
2022/08/08 05:50:06;;;;;;;5.95;1.20;;;;;;;20.05;53.09;98948.06;5066915;28;20020;-71
2022/08/08 05:52:34;;;;;;;1.50;1.10;;;;;;;20.53;53.11;98950.84;5066683;28;20025;-70
2022/08/08 05:55:00;;;;;;;1.63;1.15;;;;;;;21.23;51.85;98950.50;5066991;28;20024;-70
2022/08/08 05:57:26;;;;;;;4.93;1.17;;;;;;;21.27;52.19;98950.22;5066473;28;20045;-70
2022/08/08 05:59:56;;;;;;;1.70;1.30;;;;;;;21.44;51.88;98946.56;5066489;28;20028;-70
2022/08/08 06:05:09;;;;;;;2.95;1.40;;;;;;;21.88;50.94;98949.34;5066401;28;20028;-71
2022/08/08 06:07:39;;;;;;;5.07;1.48;;;;;;;22.27;51.75;98965.72;5066454;28;20307;-70
2022/08/08 06:10:06;;;;;;;1.77;0.98;;;;;;;23.14;48.80;98976.25;5066372;28;20052;-71
2022/08/08 06:12:33;;;;;;;3.58;1.23;;;;;;;23.60;47.48;98977.69;5066271;28;20359;-71
2022/08/08 06:15:04;;;;;;;0.95;0.88;;;;;;;24.12;44.91;98983.13;5066497;28;20028;-71
2022/08/08 06:17:34;;;;;;;2.75;1.10;;;;;;;24.04;43.00;98967.53;5066389;28;20025;-71
2022/08/08 06:20:04;;;;;;;2.10;1.17;;;;;;;24.42;44.05;98964.88;5066144;28;20028;-71
2022/08/08 06:22:29;;;;;;;1.20;1.08;;;;;;;24.54;45.48;98974.78;5066394;28;20021;-71
2022/08/08 06:24:55;;;;;;;1.67;0.93;;;;;;;25.70;43.20;98990.53;5065661;28;20342;-71
2022/08/08 06:27:34;;;;;;;2.95;1.25;;;;;;;25.72;40.73;98977.78;5065959;28;20032;-71
2022/08/08 06:30:11;;;;;;;4.13;0.90;;;;;;;26.31;39.96;98980.38;5065817;28;20052;-71
2022/08/08 06:32:56;;;;;;;3.78;1.00;;;;;;;26.80;38.46;98985.53;5066189;28;20136;-71
2022/08/08 06:35:22;;;;;;;2.67;1.33;;;;;;;26.96;39.15;98986.03;5065887;28;20020;-71
2022/08/08 06:37:53;;;;;;;1.92;1.00;;;;;;;27.64;35.84;98989.38;5065731;28;20312;-71
2022/08/08 06:40:19;;;;;;;5.70;1.10;;;;;;;27.43;35.43;98985.78;5065783;28;20047;-71
2022/08/08 06:43:01;;;;;;;2.05;0.98;;;;;;;27.99;34.99;98990.03;5065766;28;20024;-71
2022/08/08 06:45:29;;;;;;;8.02;1.25;;;;;;;27.85;34.68;98987.63;5065776;28;20020;-71
2022/08/08 06:47:54;;;;;;;3.72;1.13;;;;;;;28.25;34.68;98993.25;5065625;28;20067;-71
2022/08/08 06:50:20;;;;;;;4.82;0.85;;;;;;;29.10;33.35;98992.94;5065547;28;20028;-71
2022/08/08 06:52:45;;;;;;;6.63;1.13;;;;;;;28.91;32.44;98982.84;5065795;28;20017;-71
2022/08/08 06:55:10;;;;;;;1.92;0.80;;;;;;;29.12;32.42;98977.41;5065518;28;20256;-71
2022/08/08 06:57:36;;;;;;;2.40;1.00;;;;;;;30.06;31.97;98994.06;5065451;28;20367;-71
2022/08/08 07:00:05;;;;;;;4.97;1.17;;;;;;;29.46;32.82;98980.66;5065373;28;20314;-71
2022/08/08 07:02:33;;;;;;;4.32;1.02;;;;;;;29.57;32.37;98994.09;5065621;28;20032;-71
2022/08/08 07:05:01;;;;;;;2.08;1.00;;;;;;;30.25;31.00;98999.53;5065283;28;20049;-71
2022/08/08 07:07:42;;;;;;;2.28;1.08;;;;;;;30.14;31.15;98989.63;5065312;28;20025;-70
2022/08/08 07:10:10;;;;;;;3.88;1.00;;;;;;;30.08;30.79;98984.75;5065241;28;20028;-70
2022/08/08 07:12:41;;;;;;;2.55;0.93;;;;;;;30.57;30.09;99000.06;5065193;28;20216;-70
2022/08/08 07:15:12;;;;;;;4.80;1.00;;;;;;;30.53;30.12;99002.19;5065142;28;20021;-70
2022/08/08 07:17:48;;;;;;;4.20;1.30;;;;;;;29.51;30.41;98989.25;5065249;28;20316;-70
2022/08/08 07:20:19;;;;;;;4.65;1.40;;;;;;;30.08;30.56;98997.50;5065004;28;20028;-70
2022/08/08 07:23:11;;;;;;;4.07;1.20;;;;;;;29.23;30.94;98990.84;5065253;28;20213;-71
2022/08/08 07:25:41;;;;;;;1.90;0.90;;;;;;;29.38;30.73;99003.03;5064956;28;20020;-71
2022/08/08 07:28:12;;;;;;;1.83;1.00;;;;;;;29.57;31.09;99007.66;5064653;28;20049;-71
2022/08/08 07:30:39;;;;;;;9.20;1.10;;;;;;;28.47;31.08;98996.72;5064856;28;20032;-71
2022/08/08 07:33:04;;;;;;;3.80;1.20;;;;;;;28.94;30.96;99016.94;5064797;28;20025;-71
2022/08/08 07:35:31;;;;;;;3.88;1.23;;;;;;;29.48;30.50;99005.81;5064494;28;20025;-71
2022/08/08 07:37:58;;;;;;;6.15;1.13;;;;;;;29.36;30.50;99017.75;5064067;28;20021;-71
2022/08/08 07:40:24;;;;;;;1.70;1.08;;;;;;;29.85;29.82;99015.91;5064616;28;20324;-71
2022/08/08 07:42:52;;;;;;;3.75;1.33;;;;;;;29.94;29.32;99009.63;5064551;28;20028;-71
2022/08/08 07:45:19;;;;;;;5.13;1.23;;;;;;;29.77;30.25;99006.75;5064545;28;20092;-71
2022/08/08 07:47:44;;;;;;;2.03;1.00;;;;;;;30.25;29.16;99022.13;5064541;28;20044;-71
2022/08/08 07:50:10;;;;;;;5.50;1.15;;;;;;;29.36;30.37;99012.31;5064478;28;20032;-71
2022/08/08 07:52:38;;;;;;;5.50;1.15;;;;;;;29.88;29.64;99021.03;5064430;28;20092;-71
2022/08/08 07:55:12;;;;;;;4.25;1.30;;;;;;;29.68;30.28;99013.88;5064409;28;20025;-71
2022/08/08 07:58:00;;;;;;;6.05;1.33;;;;;;;30.71;29.77;99037.63;5064274;28;20029;-71
2022/08/08 08:00:38;;;;;;;11.35;1.38;;;;;;;30.18;29.27;99022.81;5064541;28;20035;-71
2022/08/08 08:03:06;;;;;;;4.70;1.15;;;;;;;30.30;29.76;99027.09;5064289;28;20035;-71
2022/08/08 08:05:39;;;;;;;6.13;1.38;;;;;;;30.88;28.61;99028.78;5064248;28;20024;-71
2022/08/08 08:08:14;;;;;;;5.63;1.00;;;;;;;31.34;29.07;99042.38;5064264;28;20221;-71
2022/08/08 08:10:39;;;;;;;3.78;1.20;;;;;;;31.65;28.17;99040.22;5064119;28;20017;-71
2022/08/08 08:13:19;;;;;;;2.03;1.05;;;;;;;31.35;28.58;99026.94;5064171;28;20118;-71
2022/08/08 08:16:00;;;;;;;5.10;1.27;;;;;;;31.43;28.92;99038.78;5064066;28;20053;-71
2022/08/08 08:18:32;;;;;;;2.93;1.30;;;;;;;32.16;28.77;99035.91;5064066;28;20032;-71
2022/08/08 08:21:01;;;;;;;4.78;1.38;;;;;;;32.10;28.01;99032.94;5064082;28;20088;-71
2022/08/08 08:23:26;;;;;;;1.90;1.00;;;;;;;32.18;27.96;99028.44;5064049;28;20055;-71
2022/08/08 08:25:52;;;;;;;3.90;1.48;;;;;;;32.61;27.77;99033.97;5063923;28;20028;-71
2022/08/08 08:28:20;;;;;;;5.90;1.27;;;;;;;32.00;27.80;99019.41;5063665;28;20241;-71
2022/08/08 08:30:45;;;;;;;1.90;0.90;;;;;;;32.60;27.74;99029.53;5063900;28;20024;-71
2022/08/08 08:33:11;;;;;;;2.60;1.10;;;;;;;32.99;27.16;99044.50;5063859;28;20036;-71
2022/08/08 08:35:36;;;;;;;7.28;1.48;;;;;;;31.71;28.13;99016.00;5063899;28;20043;-71
2022/08/08 08:38:01;;;;;;;3.45;1.10;;;;;;;32.14;27.66;99021.56;5063820;28;20071;-70
2022/08/08 08:40:29;;;;;;;3.92;1.08;;;;;;;32.51;27.59;99022.31;5063919;28;20075;-70
2022/08/08 08:42:55;;;;;;;1.83;0.93;;;;;;;32.73;28.54;99040.00;5063759;28;20260;-70
2022/08/08 08:45:20;;;;;;;2.42;1.10;;;;;;;32.68;27.37;99026.84;5063989;28;20067;-70
2022/08/08 08:47:47;;;;;;;3.10;1.27;;;;;;;32.25;28.04;99018.63;5065002;28;20021;-70
2022/08/08 08:50:12;;;;;;;6.40;1.00;;;;;;;32.63;27.60;99034.69;5067881;28;20044;-70
2022/08/08 08:52:41;;;;;;;4.22;1.30;;;;;;;33.17;26.97;99039.00;5067869;28;20084;-70
2022/08/08 08:55:14;;;;;;;3.15;1.00;;;;;;;33.13;27.63;99040.34;5067743;28;20032;-71
2022/08/08 08:57:42;;;;;;;3.10;1.40;;;;;;;33.01;26.61;99034.31;5067887;28;20029;-71
2022/08/08 09:00:09;;;;;;;4.07;1.13;;;;;;;33.50;27.25;99053.72;5067771;28;20021;-71
2022/08/08 09:02:36;;;;;;;3.90;1.20;;;;;;;33.25;27.26;99035.47;5067693;28;20021;-71
2022/08/08 09:05:04;;;;;;;4.15;1.08;;;;;;;33.55;26.39;99029.47;5067636;28;20342;-71
2022/08/08 09:07:33;;;;;;;2.63;1.20;;;;;;;33.24;26.99;99037.31;5067460;28;20032;-71
2022/08/08 09:09:58;;;;;;;3.40;1.25;;;;;;;33.13;26.97;99027.53;5067452;28;20096;-71
2022/08/08 09:12:26;;;;;;;1.50;1.17;;;;;;;33.25;27.22;99030.00;5067435;28;20032;-71
2022/08/08 09:14:54;;;;;;;5.38;1.20;;;;;;;32.81;27.22;99027.28;5067337;28;20036;-71
2022/08/08 09:17:23;;;;;;;1.48;1.02;;;;;;;32.96;26.59;99017.56;5067219;28;20028;-71
2022/08/08 09:19:52;;;;;;;2.17;1.10;;;;;;;32.83;26.92;99025.28;5067241;28;20092;-71
2022/08/08 09:22:21;;;;;;;4.88;1.48;;;;;;;33.33;26.22;99028.16;5067249;28;20026;-71
2022/08/08 09:24:48;;;;;;;6.55;1.30;;;;;;;32.63;27.45;99023.78;5067244;28;20095;-71
2022/08/08 09:27:15;;;;;;;5.18;1.40;;;;;;;32.63;27.79;99018.31;5067369;28;20048;-71
2022/08/08 09:30:09;;;;;;;3.80;1.50;;;;;;;33.28;26.59;99024.22;5067083;28;20064;-71
2022/08/08 09:32:35;;;;;;;5.60;1.65;;;;;;;33.71;26.68;99022.22;5067028;28;20025;-71
2022/08/08 09:35:03;;;;;;;9.50;1.80;;;;;;;33.36;27.19;99024.25;5067291;28;20029;-70
2022/08/08 09:37:40;;;;;;;5.20;1.60;;;;;;;33.22;27.04;99016.69;5066963;28;20088;-70
2022/08/08 09:40:08;;;;;;;3.65;1.40;;;;;;;33.19;27.27;99008.81;5066983;28;20025;-70
2022/08/08 09:43:02;;;;;;;2.47;1.50;;;;;;;33.42;26.73;99015.44;5066950;28;20074;-70
2022/08/08 09:45:37;;;;;;;4.05;1.40;;;;;;;33.50;26.38;99007.31;5057252;28;20034;-70
2022/08/08 09:48:03;;;;;;;2.50;1.30;;;;;;;33.54;27.04;99014.13;5066783;28;20021;-70
2022/08/08 09:50:29;;;;;;;2.97;1.30;;;;;;;32.86;26.83;99003.16;5066807;28;20025;-70
2022/08/08 09:52:56;;;;;;;4.65;1.33;;;;;;;33.81;27.14;99016.59;5066704;28;20319;-70
2022/08/08 09:55:24;;;;;;;1.60;1.20;;;;;;;33.22;27.61;99013.94;5066644;28;20221;-71
2022/08/08 09:57:56;;;;;;;2.15;1.55;;;;;;;33.62;26.85;99006.81;5066530;28;20045;-71
2022/08/08 10:00:24;;;;;;;5.85;1.30;;;;;;;33.44;26.46;98992.44;5065839;28;20040;-71
2022/08/08 10:02:51;;;;;;;2.50;1.35;;;;;;;33.55;27.13;98994.00;5066444;28;20029;-71
2022/08/08 10:05:20;;;;;;;4.18;1.65;;;;;;;33.13;27.41;98987.63;5066508;28;20017;-71
2022/08/08 10:07:51;;;;;;;4.15;1.52;;;;;;;33.27;26.30;98984.31;5066452;28;20063;-71
2022/08/08 10:10:43;;;;;;;;;;;;;;;33.10;27.70;98984.19;5066811;28;20320;-71
2022/08/08 10:13:20;;;;;;;4.57;1.80;;;;;;;33.86;27.03;98986.94;5064270;28;19979;-71
2022/08/08 10:15:51;;;;;;;4.93;1.48;;;;;;;34.23;27.38;98984.63;5066301;28;20028;-71
2022/08/08 10:18:32;;;;;;;4.05;1.40;;;;;;;34.16;26.91;98983.56;5066255;28;20025;-71
2022/08/08 10:21:04;;;;;;;2.40;1.30;;;;;;;33.33;27.19;98973.59;5066283;28;20025;-71
2022/08/08 10:23:47;;;;;;;3.67;1.50;;;;;;;32.73;27.77;98974.56;5066243;28;20028;-71
2022/08/08 10:26:23;;;;;;;3.75;1.60;;;;;;;33.21;27.49;98974.06;5066144;28;20027;-71
2022/08/08 10:28:54;;;;;;;5.53;1.40;;;;;;;33.72;26.91;98980.22;5065784;28;20037;-71
2022/08/08 10:34:13;;;;;;;2.40;1.52;;;;;;;33.46;27.04;98962.22;5065905;28;20059;-71
2022/08/08 10:36:40;;;;;;;3.38;1.77;;;;;;;33.05;27.98;98961.16;5066060;28;20036;-71
2022/08/08 10:39:08;;;;;;;3.67;1.20;;;;;;;32.71;28.11;98961.09;5065839;28;20044;-71
2022/08/08 10:41:36;;;;;;;2.70;1.58;;;;;;;32.12;28.62;98952.78;5065815;28;20029;-71
2022/08/08 10:44:03;;;;;;;2.78;1.38;;;;;;;31.55;28.13;98947.75;5065765;28;20255;-71
2022/08/08 10:46:30;;;;;;;6.18;1.40;;;;;;;31.53;28.51;98947.03;5065703;28;20013;-71
2022/08/08 10:48:56;;;;;;;4.03;1.23;;;;;;;32.04;28.85;98963.59;5065619;28;20036;-71
2022/08/08 10:51:34;;;;;;;2.60;1.30;;;;;;;32.34;27.99;98951.47;5065623;28;20092;-71
2022/08/08 10:54:00;;;;;;;5.25;1.55;;;;;;;33.37;28.28;98961.34;5065595;28;20040;-71
2022/08/08 10:56:32;;;;;;;2.28;1.40;;;;;;;32.74;28.16;98947.16;5065426;28;20321;-71
2022/08/08 10:58:58;;;;;;;7.03;1.55;;;;;;;32.39;28.13;98960.88;5065541;28;20092;-71
2022/08/08 11:01:28;;;;;;;6.85;1.70;;;;;;;32.32;28.61;98954.31;5065378;28;20315;-71
2022/08/08 11:03:57;;;;;;;2.70;1.65;;;;;;;32.99;27.84;98957.22;5065384;28;20075;-71
2022/08/08 11:06:22;;;;;;;3.13;1.30;;;;;;;33.45;27.12;98961.38;5065316;28;20020;-71
2022/08/08 11:08:47;;;;;;;6.65;1.48;;;;;;;32.70;26.95;98958.53;5065276;28;20028;-71
2022/08/08 11:11:13;;;;;;;5.55;1.67;;;;;;;32.78;27.94;98943.06;5064086;28;20025;-71
2022/08/08 11:13:43;;;;;;;4.10;1.50;;;;;;;32.65;27.57;98941.81;5065201;28;20047;-71
2022/08/08 11:16:21;;;;;;;2.47;1.67;;;;;;;31.90;28.64;98938.78;5065041;28;20024;-71
2022/08/08 11:18:48;;;;;;;5.22;1.40;;;;;;;31.61;27.93;98919.06;5065068;28;20087;-71
2022/08/08 11:21:15;;;;;;;3.47;1.70;;;;;;;31.85;27.61;98939.25;5065042;28;20347;-71
2022/08/08 11:23:42;;;;;;;3.58;1.40;;;;;;;32.09;28.63;98936.75;5064958;28;20032;-71
2022/08/08 11:26:12;;;;;;;8.25;2.00;;;;;;;32.01;28.27;98928.50;5065199;28;20092;-71
2022/08/08 11:28:39;;;;;;;5.07;1.90;;;;;;;32.28;29.10;98936.59;5064708;28;20033;-71
2022/08/08 11:31:05;;;;;;;8.02;1.60;;;;;;;31.85;28.88;98917.47;5064888;28;20031;-71
2022/08/08 11:33:34;;;;;;;8.75;1.73;;;;;;;31.68;29.27;98928.31;5064817;28;20025;-71
2022/08/08 11:35:59;;;;;;;4.72;1.95;;;;;;;31.39;28.81;98914.94;5064712;28;20113;-71
2022/08/08 11:38:26;;;;;;;3.45;1.75;;;;;;;30.78;29.11;98905.63;5064699;28;20021;-71
2022/08/08 11:40:53;;;;;;;4.10;1.70;;;;;;;30.74;29.71;98902.34;5064679;28;20366;-71
2022/08/08 11:43:20;;;;;;;2.38;1.65;;;;;;;30.23;29.54;98890.16;5064568;28;20070;-71
2022/08/08 11:45:46;;;;;;;3.15;1.75;;;;;;;29.95;30.10;98896.44;5064519;28;20025;-71
2022/08/08 11:48:14;;;;;;;6.53;1.88;;;;;;;30.29;29.77;98905.88;5064521;28;20027;-71
2022/08/08 11:50:40;;;;;;;4.18;1.67;;;;;;;30.03;30.28;98899.31;5064416;28;20017;-71
2022/08/08 11:53:07;;;;;;;3.47;1.60;;;;;;;29.80;30.59;98897.91;5064412;28;20028;-71
2022/08/08 11:55:36;;;;;;;5.28;1.90;;;;;;;29.92;30.69;98896.75;5064373;28;20220;-71
2022/08/08 11:58:07;;;;;;;2.72;1.42;;;;;;;30.42;31.25;98906.41;5064387;28;20074;-71
2022/08/08 12:00:33;;;;;;;4.45;1.90;;;;;;;30.67;30.97;98894.91;5064606;28;20020;-71
2022/08/08 12:02:59;;;;;;;12.45;1.88;;;;;;;30.31;31.18;98887.59;5064311;28;20044;-71
2022/08/08 12:05:37;;;;;;;3.20;1.42;;;;;;;29.86;30.55;98894.63;5064473;28;20240;-71
2022/08/08 12:08:03;;;;;;;3.25;1.40;;;;;;;29.66;31.01;98890.19;5064239;28;20023;-71
2022/08/08 12:10:30;;;;;;;5.32;1.90;;;;;;;29.44;30.46;98874.13;5064212;28;20396;-71